Time;durP1;ratioP1;P1;durP2;ratioP2;P2;SDS_P1;SDS_P2;PMS_P1;PMS_P2;Temp;Humidity;BMP_temperature;BMP_pressure;BME280_temperature;BME280_humidity;BME280_pressure;Samples;Min_cycle;Max_cycle;Signal;HPM_P1;HPM_P2
2021/08/09 00:00:35;;;;;;;11.50;10.40;;;21.70;74.60;;;;;;5076838;28;20190;-80
2021/08/09 00:03:02;;;;;;;11.55;10.35;;;21.60;74.60;;;;;;5077586;28;20174;-82
2021/08/09 00:05:30;;;;;;;12.10;9.98;;;21.70;74.70;;;;;;5060718;28;20308;-79
2021/08/09 00:08:00;;;;;;;10.98;9.88;;;21.60;74.60;;;;;;5077334;28;20284;-80
2021/08/09 00:10:27;;;;;;;11.50;10.32;;;21.70;74.50;;;;;;5073965;28;20252;-81
2021/08/09 00:12:55;;;;;;;11.07;9.98;;;21.70;74.50;;;;;;5039285;28;20170;-81
2021/08/09 00:15:23;;;;;;;11.15;10.05;;;21.70;74.50;;;;;;5089872;28;20190;-79
2021/08/09 00:17:50;;;;;;;11.02;9.93;;;21.70;75.30;;;;;;5090961;27;20270;-80
2021/08/09 00:20:21;;;;;;;11.38;10.27;;;21.70;74.50;;;;;;5004849;28;20210;-82
2021/08/09 00:22:47;;;;;;;11.25;10.15;;;21.70;74.40;;;;;;5073799;28;20182;-81
2021/08/09 00:25:17;;;;;;;11.45;10.35;;;21.70;75.30;;;;;;5107362;28;20215;-80
2021/08/09 00:27:44;;;;;;;10.93;9.82;;;21.60;74.50;;;;;;5090066;28;20183;-81
2021/08/09 00:30:16;;;;;;;11.55;10.23;;;21.70;74.50;;;;;;5090348;28;20231;-80
2021/08/09 00:32:48;;;;;;;11.20;10.10;;;21.70;74.40;;;;;;5069004;28;20179;-83
2021/08/09 00:35:14;;;;;;;11.20;10.07;;;21.60;74.30;;;;;;5085793;28;20187;-79
2021/08/09 00:37:44;;;;;;;11.20;10.02;;;21.70;74.50;;;;;;5035358;28;20183;-81
2021/08/09 00:40:11;;;;;;;10.98;9.88;;;21.70;74.30;;;;;;5103611;28;20187;-82
2021/08/09 00:42:37;;;;;;;11.25;9.98;;;21.70;74.50;;;;;;5034051;28;20151;-79
2021/08/09 00:45:08;;;;;;;11.35;10.10;;;21.60;74.40;;;;;;5034087;28;20280;-81
2021/08/09 00:47:34;;;;;;;11.30;9.73;;;21.60;74.50;;;;;;5085960;28;20187;-81
2021/08/09 00:50:06;;;;;;;11.32;9.88;;;21.60;74.30;;;;;;5033900;28;20166;-82
2021/08/09 00:52:32;;;;;;;10.95;9.80;;;21.70;74.50;;;;;;5086006;28;20210;-81
2021/08/09 00:54:58;;;;;;;10.60;9.60;;;21.60;74.40;;;;;;5034750;28;20162;-80
2021/08/09 00:57:28;;;;;;;11.13;9.93;;;21.60;74.50;;;;;;5033818;28;20213;-81
2021/08/09 00:59:58;;;;;;;11.25;10.05;;;21.60;74.60;;;;;;5085913;28;20179;-82
2021/08/09 01:02:26;;;;;;;10.73;9.73;;;21.60;74.30;;;;;;5000569;28;20228;-81
2021/08/09 01:04:55;;;;;;;11.32;10.15;;;21.60;74.50;;;;;;5017613;28;20269;-80
2021/08/09 01:07:27;;;;;;;11.93;10.35;;;21.60;74.50;;;;;;5103119;28;20186;-81
2021/08/09 01:10:02;;;;;;;11.20;10.10;;;21.60;74.50;;;;;;5102876;28;20305;-81
2021/08/09 01:12:58;;;;;;;11.55;10.20;;;21.60;75.20;;;;;;5034603;28;20165;-83
2021/08/09 01:15:35;;;;;;;11.23;10.02;;;21.60;74.50;;;;;;5035322;28;20257;-82
2021/08/09 01:18:06;;;;;;;11.20;10.07;;;21.60;74.50;;;;;;5017725;28;20169;-83
2021/08/09 01:20:49;;;;;;;10.70;9.55;;;21.60;74.50;;;;;;5085493;28;20182;-81
2021/08/09 01:23:38;;;;;;;11.10;10.00;;;21.60;74.50;;;;;;5034057;28;20207;-81
2021/08/09 01:26:19;;;;;;;11.00;9.88;;;21.60;74.60;;;;;;5058481;28;20685;-82
2021/08/09 01:28:48;;;;;;;11.20;10.00;;;21.60;74.50;;;;;;5017812;28;20178;-85
2021/08/09 01:31:18;;;;;;;11.43;10.30;;;21.60;74.50;;;;;;5086001;28;20182;-79
2021/08/09 01:33:46;;;;;;;10.73;9.63;;;21.60;74.30;;;;;;5102266;28;20179;-80
2021/08/09 01:36:15;;;;;;;10.90;9.80;;;21.60;74.30;;;;;;5016362;28;20207;-82
2021/08/09 01:38:45;;;;;;;10.80;9.70;;;21.60;74.50;;;;;;5085547;28;20174;-81
2021/08/09 01:41:14;;;;;;;11.90;9.73;;;21.60;74.50;;;;;;5084982;28;20183;-81
2021/08/09 01:43:43;;;;;;;10.82;9.65;;;21.60;74.50;;;;;;5084819;28;20543;-81
2021/08/09 01:46:12;;;;;;;10.82;9.73;;;21.60;74.50;;;;;;5101741;28;20709;-82
2021/08/09 01:48:43;;;;;;;11.25;9.60;;;21.60;74.50;;;;;;5101221;28;20183;-82
2021/08/09 01:51:11;;;;;;;10.55;9.55;;;21.60;74.50;;;;;;5016545;28;20187;-81
2021/08/09 01:53:40;;;;;;;10.45;9.45;;;21.60;74.30;;;;;;5102578;28;20262;-82
2021/08/09 01:56:13;;;;;;;11.00;9.90;;;21.60;74.30;;;;;;5101905;28;20197;-83
2021/08/09 01:58:46;;;;;;;10.85;9.75;;;21.60;74.50;;;;;;5102188;28;20266;-84
2021/08/09 02:01:14;;;;;;;11.82;9.93;;;21.60;74.30;;;;;;5102064;28;20231;-82
2021/08/09 02:03:44;;;;;;;11.05;9.95;;;21.60;74.40;;;;;;5016055;28;20183;-80
2021/08/09 02:06:14;;;;;;;10.48;9.45;;;21.60;74.40;;;;;;5085714;28;20191;-80
2021/08/09 02:08:44;;;;;;;10.65;9.60;;;21.60;74.40;;;;;;5101959;28;20185;-80
2021/08/09 02:11:24;;;;;;;10.70;9.63;;;21.60;75.20;;;;;;5101817;28;20254;-82
2021/08/09 02:13:58;;;;;;;11.23;9.75;;;21.60;74.50;;;;;;5000733;28;20265;-80
2021/08/09 02:16:42;;;;;;;10.88;9.77;;;21.60;74.50;;;;;;5016197;28;20566;-82
2021/08/09 02:19:21;;;;;;;10.68;9.57;;;21.60;74.50;;;;;;5032715;28;20154;-81
2021/08/09 02:21:55;;;;;;;10.80;9.68;;;21.60;74.30;;;;;;5097166;28;20214;-85
2021/08/09 02:24:34;;;;;;;10.45;9.45;;;21.60;74.40;;;;;;5085293;28;20220;-80
2021/08/09 02:27:09;;;;;;;10.02;9.05;;;21.60;74.30;;;;;;5089318;28;20205;-85
2021/08/09 02:29:37;;;;;;;10.63;9.57;;;21.60;74.20;;;;;;5088485;28;20178;-81
2021/08/09 02:32:05;;;;;;;10.70;9.70;;;21.60;74.20;;;;;;5019733;28;20193;-83
2021/08/09 02:34:35;;;;;;;10.40;9.40;;;21.60;74.20;;;;;;5088085;28;20182;-81
2021/08/09 02:37:04;;;;;;;10.43;9.40;;;21.50;74.20;;;;;;5089039;28;20183;-82
2021/08/09 02:39:34;;;;;;;10.35;9.27;;;21.60;74.30;;;;;;5089167;28;20197;-81
2021/08/09 02:42:00;;;;;;;10.93;9.77;;;21.60;74.40;;;;;;5105585;28;20183;-82
2021/08/09 02:44:26;;;;;;;10.98;9.95;;;21.60;74.50;;;;;;5036991;28;20201;-81
2021/08/09 02:46:54;;;;;;;11.52;10.32;;;21.60;74.50;;;;;;5019743;28;20151;-80
2021/08/09 02:49:21;;;;;;;11.07;9.90;;;21.60;74.30;;;;;;5088075;28;20641;-83
2021/08/09 02:51:51;;;;;;;10.23;9.23;;;21.50;74.20;;;;;;5071329;28;20190;-81
2021/08/09 02:54:22;;;;;;;10.50;9.43;;;21.60;74.10;;;;;;5019801;28;20212;-81
2021/08/09 02:56:50;;;;;;;10.63;9.63;;;21.60;74.20;;;;;;5088483;28;20218;-79
2021/08/09 02:59:15;;;;;;;11.65;10.07;;;21.60;74.20;;;;;;5088003;28;20179;-82
2021/08/09 03:01:47;;;;;;;11.48;10.07;;;21.60;74.10;;;;;;5036270;28;20227;-80
2021/08/09 03:04:15;;;;;;;10.57;9.50;;;21.60;74.40;;;;;;5088371;28;20255;-79
2021/08/09 03:06:45;;;;;;;10.60;9.52;;;21.60;74.50;;;;;;5070984;28;20182;-82
2021/08/09 03:09:12;;;;;;;11.10;10.02;;;21.60;74.40;;;;;;5088112;28;20185;-81
2021/08/09 03:11:42;;;;;;;11.30;10.10;;;21.60;74.30;;;;;;5071152;28;20551;-84
2021/08/09 03:14:24;;;;;;;10.50;9.50;;;21.60;74.40;;;;;;5087550;28;20642;-80
2021/08/09 03:16:55;;;;;;;10.75;9.65;;;21.60;74.30;;;;;;5064354;28;20187;-81
2021/08/09 03:19:25;;;;;;;10.60;9.52;;;21.50;74.30;;;;;;5019291;28;20266;-81
2021/08/09 03:21:54;;;;;;;10.50;9.43;;;21.60;74.30;;;;;;5088282;28;20182;-81
2021/08/09 03:24:22;;;;;;;9.95;9.00;;;21.60;74.30;;;;;;5086993;28;20266;-80
2021/08/09 03:26:49;;;;;;;10.52;9.43;;;21.60;74.40;;;;;;5087453;28;20231;-80
2021/08/09 03:29:16;;;;;;;10.85;9.75;;;21.60;74.50;;;;;;5070149;28;20174;-80
2021/08/09 03:31:43;;;;;;;10.75;9.73;;;21.60;74.50;;;;;;5086825;28;20187;-82
2021/08/09 03:34:13;;;;;;;10.77;9.68;;;21.50;74.30;;;;;;5069430;28;20178;-82
2021/08/09 03:36:41;;;;;;;10.60;9.60;;;21.60;74.40;;;;;;5017242;28;20228;-83
2021/08/09 03:39:09;;;;;;;10.57;9.55;;;21.60;74.50;;;;;;5017574;28;20163;-82
2021/08/09 03:41:39;;;;;;;10.70;9.70;;;21.60;74.30;;;;;;5034200;28;20629;-81
2021/08/09 03:44:07;;;;;;;11.00;9.80;;;21.60;74.40;;;;;;5068365;28;20277;-84
2021/08/09 03:46:35;;;;;;;11.05;9.95;;;21.60;74.20;;;;;;5067658;28;20187;-84
2021/08/09 03:49:09;;;;;;;10.57;9.55;;;21.60;74.40;;;;;;5102130;28;20187;-83
2021/08/09 03:51:40;;;;;;;10.60;9.60;;;21.50;74.30;;;;;;5083194;28;20194;-82
2021/08/09 03:54:08;;;;;;;10.80;9.77;;;21.60;74.20;;;;;;5101879;28;20209;-80
2021/08/09 03:56:35;;;;;;;9.52;8.63;;;21.50;74.20;;;;;;5084960;28;20187;-84
2021/08/09 03:59:03;;;;;;;10.23;9.23;;;21.60;74.10;;;;;;5085332;28;20186;-80
2021/08/09 04:01:30;;;;;;;11.05;9.75;;;21.60;74.20;;;;;;5085266;28;20193;-83
2021/08/09 04:04:03;;;;;;;11.23;10.02;;;21.60;74.30;;;;;;5085021;28;20187;-80
2021/08/09 04:06:33;;;;;;;10.60;9.27;;;21.60;74.30;;;;;;5101453;28;20198;-81
2021/08/09 04:09:00;;;;;;;10.95;9.88;;;21.50;74.20;;;;;;5084867;28;20187;-81
2021/08/09 04:11:30;;;;;;;10.73;9.65;;;21.60;74.20;;;;;;5101372;28;20229;-81
2021/08/09 04:13:57;;;;;;;9.77;8.77;;;21.60;74.20;;;;;;5084372;28;20179;-82
2021/08/09 04:16:24;;;;;;;10.55;9.48;;;21.60;73.60;;;;;;5083974;28;20307;-82
2021/08/09 04:18:51;;;;;;;10.70;9.60;;;21.50;73.90;;;;;;5016024;28;20171;-83
2021/08/09 04:21:18;;;;;;;9.30;8.40;;;21.60;74.00;;;;;;4999476;28;20269;-83
2021/08/09 04:23:45;;;;;;;9.23;8.32;;;21.60;73.70;;;;;;5083597;28;20178;-82
2021/08/09 04:26:15;;;;;;;8.40;7.60;;;21.60;73.80;;;;;;5015680;28;20617;-81
2021/08/09 04:28:46;;;;;;;9.05;8.15;;;21.50;73.80;;;;;;4998409;28;20191;-84
2021/08/09 04:31:12;;;;;;;8.43;7.65;;;21.50;73.70;;;;;;5014629;28;20223;-80
2021/08/09 04:33:45;;;;;;;8.13;7.32;;;21.60;73.30;;;;;;5031034;28;20163;-82
2021/08/09 04:36:16;;;;;;;9.20;8.18;;;21.70;73.20;;;;;;5031582;28;20575;-84
2021/08/09 04:38:42;;;;;;;13.23;8.55;;;21.70;73.10;;;;;;5083383;28;20239;-86
2021/08/09 04:41:12;;;;;;;9.05;8.15;;;21.70;73.20;;;;;;5014851;28;20229;-83
2021/08/09 04:43:39;;;;;;;9.30;8.40;;;21.70;72.80;;;;;;5099916;28;20186;-81
2021/08/09 04:46:05;;;;;;;9.45;8.52;;;21.70;72.70;;;;;;5030880;28;20194;-81
2021/08/09 04:48:31;;;;;;;8.80;8.00;;;21.70;72.80;;;;;;5030601;28;20162;-81
2021/08/09 04:50:57;;;;;;;9.10;8.20;;;21.70;72.70;;;;;;5031301;28;20167;-84
2021/08/09 04:53:27;;;;;;;8.63;7.80;;;21.70;72.80;;;;;;5031628;28;20295;-82
2021/08/09 04:55:53;;;;;;;8.88;7.97;;;21.80;72.40;;;;;;5082719;28;20237;-81
2021/08/09 04:58:23;;;;;;;7.90;7.10;;;21.80;72.50;;;;;;5032178;28;20162;-82
2021/08/09 05:00:49;;;;;;;8.93;8.10;;;21.90;72.00;;;;;;5099685;28;20178;-84
2021/08/09 05:03:15;;;;;;;8.73;7.93;;;21.90;72.20;;;;;;5014206;28;20249;-82
2021/08/09 05:05:43;;;;;;;8.80;7.97;;;21.80;72.00;;;;;;5015106;28;20708;-82
2021/08/09 05:08:09;;;;;;;8.57;7.78;;;21.90;72.10;;;;;;5030573;28;20636;-83
2021/08/09 05:10:35;;;;;;;8.63;7.68;;;21.90;72.00;;;;;;5003035;28;20231;-84
2021/08/09 05:13:01;;;;;;;8.57;7.78;;;21.90;71.70;;;;;;4994862;28;20190;-81
2021/08/09 05:15:28;;;;;;;9.35;8.45;;;22.00;71.80;;;;;;5012040;28;20168;-85
2021/08/09 05:17:59;;;;;;;8.57;7.75;;;21.90;72.00;;;;;;5011329;28;20171;-83
2021/08/09 05:20:25;;;;;;;8.88;8.00;;;21.90;71.80;;;;;;4977472;28;20179;-80
2021/08/09 05:22:51;;;;;;;8.80;8.00;;;22.00;71.60;;;;;;4994165;28;20684;-80
2021/08/09 05:25:21;;;;;;;8.38;7.57;;;22.00;71.40;;;;;;4994361;28;20236;-81
2021/08/09 05:27:50;;;;;;;8.00;7.22;;;22.00;71.30;;;;;;5061179;28;20195;-84
2021/08/09 05:30:16;;;;;;;8.73;7.82;;;22.00;71.20;;;;;;5078153;28;20190;-79
2021/08/09 05:32:42;;;;;;;8.20;7.40;;;22.00;71.30;;;;;;4993855;28;20156;-82
2021/08/09 05:35:11;;;;;;;8.15;7.35;;;22.00;71.20;;;;;;5009780;28;20160;-80
2021/08/09 05:37:40;;;;;;;8.20;7.40;;;22.10;71.00;;;;;;4976856;28;20198;-81
2021/08/09 05:40:09;;;;;;;7.82;7.03;;;22.10;70.90;;;;;;4999572;28;20236;-82
2021/08/09 05:42:37;;;;;;;9.45;8.38;;;22.10;70.80;;;;;;5082528;28;20256;-83
2021/08/09 05:45:06;;;;;;;8.43;7.63;;;22.10;70.90;;;;;;5081889;28;20219;-83
2021/08/09 05:47:36;;;;;;;8.35;7.57;;;22.00;70.90;;;;;;5064752;28;20268;-82
2021/08/09 05:50:07;;;;;;;8.52;7.63;;;22.10;71.00;;;;;;5081215;28;20671;-83
2021/08/09 05:52:33;;;;;;;7.40;6.70;;;22.00;70.90;;;;;;5065946;28;20225;-80
2021/08/09 05:55:03;;;;;;;7.45;6.75;;;22.00;71.00;;;;;;5096092;28;20168;-82
2021/08/09 05:57:30;;;;;;;7.63;6.93;;;22.10;71.00;;;;;;5079016;28;20218;-81
2021/08/09 05:59:56;;;;;;;8.02;7.22;;;22.10;70.90;;;;;;5099591;28;20157;-84
2021/08/09 06:02:22;;;;;;;8.48;7.60;;;22.20;71.20;;;;;;5083964;28;20176;-83
2021/08/09 06:04:52;;;;;;;8.80;7.72;;;22.20;71.10;;;;;;5117543;28;20549;-82
2021/08/09 06:07:18;;;;;;;8.50;7.65;;;22.20;71.10;;;;;;5067514;28;20244;-83
2021/08/09 06:09:44;;;;;;;8.50;7.70;;;22.20;71.40;;;;;;5121711;27;20249;-83
2021/08/09 06:12:10;;;;;;;7.93;7.10;;;22.20;71.20;;;;;;5121824;27;20148;-80
2021/08/09 06:14:37;;;;;;;8.43;7.57;;;22.20;71.10;;;;;;5022987;28;20198;-82
2021/08/09 06:17:03;;;;;;;8.05;7.35;;;22.30;71.00;;;;;;5000312;28;20167;-80
2021/08/09 06:19:29;;;;;;;7.65;6.95;;;22.30;70.70;;;;;;5016519;28;20167;-81
2021/08/09 06:22:00;;;;;;;7.38;6.68;;;22.30;70.70;;;;;;5032336;28;20204;-84
2021/08/09 06:24:26;;;;;;;8.10;7.30;;;22.30;70.50;;;;;;5000568;28;20494;-80
2021/08/09 06:26:52;;;;;;;7.95;7.25;;;22.20;70.60;;;;;;5017143;28;20254;-81
2021/08/09 06:29:22;;;;;;;7.47;6.78;;;22.30;70.60;;;;;;5031991;28;20175;-83
2021/08/09 06:31:53;;;;;;;8.20;7.50;;;22.30;70.50;;;;;;4998290;28;20191;-82
2021/08/09 06:34:23;;;;;;;7.10;6.40;;;22.20;70.50;;;;;;5000950;28;20187;-78
2021/08/09 06:36:49;;;;;;;6.03;5.43;;;22.20;70.50;;;;;;4999677;28;20187;-80
2021/08/09 06:39:19;;;;;;;6.60;6.00;;;22.40;69.70;;;;;;5019841;28;20642;-84
2021/08/09 06:41:45;;;;;;;7.10;6.45;;;22.40;68.90;;;;;;5021016;28;20152;-83
2021/08/09 06:44:11;;;;;;;6.70;6.10;;;22.60;68.40;;;;;;5020034;28;20160;-83
2021/08/09 06:46:37;;;;;;;6.72;6.13;;;22.60;67.80;;;;;;5022551;28;20544;-80
2021/08/09 06:49:04;;;;;;;6.95;6.35;;;22.70;67.80;;;;;;5017770;28;20159;-84
2021/08/09 06:51:39;;;;;;;7.43;6.72;;;22.70;67.90;;;;;;5015723;28;20625;-88
2021/08/09 06:54:07;;;;;;;7.75;7.05;;;22.70;68.20;;;;;;4984926;28;20199;-82
2021/08/09 06:56:38;;;;;;;6.45;5.85;;;22.60;68.30;;;;;;5023847;28;20175;-78
2021/08/09 06:59:07;;;;;;;7.78;6.28;;;22.60;69.00;;;;;;5093369;28;20176;-78
2021/08/09 07:01:37;;;;;;;6.80;6.10;;;22.60;68.90;;;;;;5076212;28;20175;-79
2021/08/09 07:04:04;;;;;;;5.95;5.38;;;22.60;68.90;;;;;;5086832;28;20179;-80
2021/08/09 07:06:34;;;;;;;6.75;6.03;;;22.50;68.80;;;;;;5014955;28;20220;-83
2021/08/09 07:09:02;;;;;;;6.57;5.95;;;22.50;69.30;;;;;;5064866;28;20180;-81
2021/08/09 07:11:29;;;;;;;7.63;6.93;;;22.40;69.30;;;;;;5036541;28;20214;-82
2021/08/09 07:13:55;;;;;;;7.25;5.35;;;22.50;69.40;;;;;;5022290;28;20162;-79
2021/08/09 07:16:24;;;;;;;6.20;5.60;;;22.30;69.40;;;;;;5038228;28;20155;-81
2021/08/09 07:18:52;;;;;;;6.43;5.82;;;22.50;69.20;;;;;;5053556;28;20170;-81
2021/08/09 07:21:18;;;;;;;6.55;5.85;;;22.50;68.90;;;;;;5022111;28;20162;-80
2021/08/09 07:23:44;;;;;;;7.25;6.65;;;22.50;69.00;;;;;;5056711;28;20165;-82
2021/08/09 07:26:11;;;;;;;7.00;6.30;;;22.50;69.40;;;;;;5036166;28;20215;-81
2021/08/09 07:28:40;;;;;;;6.95;6.35;;;22.50;69.10;;;;;;5034457;28;20162;-83
2021/08/09 07:31:10;;;;;;;7.20;6.50;;;22.50;69.20;;;;;;5071640;28;20250;-84
2021/08/09 07:33:38;;;;;;;6.53;5.93;;;22.40;69.60;;;;;;5001174;28;20178;-83
2021/08/09 07:36:06;;;;;;;6.75;6.15;;;22.40;69.30;;;;;;4985150;28;20186;-81
2021/08/09 07:38:35;;;;;;;6.70;6.10;;;22.40;69.50;;;;;;5070268;28;20258;-82
2021/08/09 07:41:02;;;;;;;6.53;5.43;;;22.40;69.20;;;;;;5070502;28;20182;-86
2021/08/09 07:43:30;;;;;;;6.78;6.07;;;22.50;68.90;;;;;;5087400;28;20270;-82
2021/08/09 07:45:57;;;;;;;6.75;6.15;;;22.50;69.00;;;;;;5054249;28;20210;-82
2021/08/09 07:48:24;;;;;;;6.80;6.10;;;22.50;68.90;;;;;;5090464;28;20202;-80
2021/08/09 07:50:50;;;;;;;7.90;5.32;;;22.40;69.00;;;;;;5061037;28;20182;-79
2021/08/09 07:53:20;;;;;;;5.70;5.20;;;22.50;69.10;;;;;;5058808;28;20172;-82
2021/08/09 07:55:46;;;;;;;6.07;5.47;;;22.50;68.90;;;;;;5092182;28;20182;-81
2021/08/09 07:58:16;;;;;;;7.18;6.47;;;22.50;69.00;;;;;;5056565;28;20173;-82
2021/08/09 08:00:42;;;;;;;6.05;5.07;;;22.40;69.60;;;;;;5057978;28;20254;-78
2021/08/09 08:03:08;;;;;;;7.60;6.28;;;22.40;69.60;;;;;;5023537;28;20621;-79
2021/08/09 08:05:36;;;;;;;6.63;5.65;;;22.40;69.40;;;;;;5040312;28;20711;-80
2021/08/09 08:08:08;;;;;;;7.85;6.47;;;22.40;69.60;;;;;;5007950;28;20194;-80
2021/08/09 08:10:34;;;;;;;6.38;5.78;;;22.50;69.80;;;;;;4992347;28;20233;-81
2021/08/09 08:12:59;;;;;;;7.97;5.82;;;22.50;69.60;;;;;;5038591;28;20178;-81
2021/08/09 08:15:29;;;;;;;6.45;5.50;;;22.50;69.70;;;;;;5040256;28;20240;-83
2021/08/09 08:17:58;;;;;;;6.95;5.70;;;22.50;69.60;;;;;;5075859;28;20621;-83
2021/08/09 08:20:29;;;;;;;12.27;5.90;;;22.50;69.90;;;;;;5075464;28;20178;-79
2021/08/09 08:23:01;;;;;;;7.88;5.50;;;22.50;69.30;;;;;;5006611;28;20190;-84
2021/08/09 08:25:32;;;;;;;10.90;6.30;;;22.60;69.30;;;;;;4994997;28;20221;-82
2021/08/09 08:28:00;;;;;;;8.65;5.80;;;22.60;69.60;;;;;;4992274;28;20186;-82
2021/08/09 08:30:28;;;;;;;10.50;6.28;;;22.50;69.70;;;;;;5076607;28;20239;-82
2021/08/09 08:32:55;;;;;;;10.25;6.15;;;22.60;69.60;;;;;;4991604;28;20186;-83
2021/08/09 08:35:25;;;;;;;14.82;6.10;;;22.50;69.80;;;;;;4994132;28;20186;-80
2021/08/09 08:37:56;;;;;;;8.45;5.78;;;22.50;69.70;;;;;;4995249;28;20277;-81
2021/08/09 08:40:26;;;;;;;15.50;6.80;;;22.60;69.40;;;;;;4993376;28;20178;-81
2021/08/09 08:42:53;;;;;;;17.92;6.85;;;22.60;69.70;;;;;;5009989;28;20225;-82
2021/08/09 08:45:20;;;;;;;13.65;6.32;;;22.50;70.30;;;;;;4993026;28;20239;-82
2021/08/09 08:47:50;;;;;;;14.98;7.25;;;22.50;70.20;;;;;;5026070;28;20229;-80
2021/08/09 08:50:20;;;;;;;13.57;6.60;;;22.50;70.50;;;;;;4992407;28;20182;-82
2021/08/09 08:52:51;;;;;;;12.93;6.55;;;22.50;71.00;;;;;;5009697;28;20170;-84
2021/08/09 08:55:18;;;;;;;13.80;6.35;;;22.50;70.40;;;;;;5010782;28;20194;-83
2021/08/09 08:57:45;;;;;;;13.50;6.45;;;22.40;70.50;;;;;;5043645;28;20173;-83
2021/08/09 09:00:14;;;;;;;12.90;6.43;;;22.50;70.60;;;;;;5001364;28;20265;-83
2021/08/09 09:02:40;;;;;;;9.40;6.10;;;22.50;70.20;;;;;;5021801;28;20189;-81
2021/08/09 09:05:17;;;;;;;10.98;6.10;;;22.50;70.40;;;;;;5022288;28;20294;-83
2021/08/09 09:07:48;;;;;;;14.77;6.78;;;22.50;70.20;;;;;;5007547;28;20205;-81
2021/08/09 09:10:24;;;;;;;11.52;5.93;;;22.60;70.50;;;;;;5064469;28;20235;-82
2021/08/09 09:13:14;;;;;;;16.40;7.07;;;22.50;70.50;;;;;;5033064;28;20167;-84
2021/08/09 09:16:07;;;;;;;11.77;6.78;;;22.50;71.20;;;;;;5034824;28;20171;-83
2021/08/09 09:18:48;;;;;;;9.57;5.78;;;22.40;71.20;;;;;;4972618;28;20212;-82
2021/08/09 09:21:37;;;;;;;13.63;7.30;;;22.50;71.00;;;;;;5053546;28;20184;-82
2021/08/09 09:24:16;;;;;;;11.70;6.40;;;22.40;71.10;;;;;;4950313;28;20200;-82
2021/08/09 09:26:52;;;;;;;9.55;5.70;;;22.40;71.20;;;;;;4993652;28;20211;-82
2021/08/09 09:29:18;;;;;;;12.13;6.40;;;22.50;71.10;;;;;;4950936;28;20176;-87
2021/08/09 09:31:49;;;;;;;9.85;6.47;;;22.40;71.30;;;;;;5019384;28;20267;-83
2021/08/09 09:34:17;;;;;;;7.50;5.68;;;22.40;71.30;;;;;;4950822;28;20189;-82
2021/08/09 09:36:53;;;;;;;9.10;5.97;;;22.40;71.00;;;;;;4970310;28;20184;-82
2021/08/09 09:39:39;;;;;;;11.25;6.00;;;22.40;71.10;;;;;;4978213;28;20168;-82
2021/08/09 09:42:07;;;;;;;9.93;6.45;;;22.50;71.00;;;;;;4980375;28;20713;-82
2021/08/09 09:44:39;;;;;;;14.18;6.35;;;22.50;70.60;;;;;;4995777;28;20196;-81
2021/08/09 09:47:23;;;;;;;10.18;6.20;;;22.50;70.80;;;;;;4981955;28;20195;-84
2021/08/09 09:49:54;;;;;;;9.45;5.90;;;22.50;71.10;;;;;;5066209;28;20575;-86
2021/08/09 09:52:44;;;;;;;9.02;5.85;;;22.50;70.30;;;;;;5049558;28;20164;-83
2021/08/09 09:55:13;;;;;;;11.50;6.00;;;22.50;70.30;;;;;;5099004;28;20188;-80
2021/08/09 09:57:44;;;;;;;9.93;5.43;;;22.50;70.20;;;;;;5049274;28;20263;-83
2021/08/09 10:00:12;;;;;;;11.90;6.35;;;22.60;69.50;;;;;;5011682;28;20200;-82
2021/08/09 10:02:46;;;;;;;9.05;5.95;;;22.60;70.30;;;;;;4945641;28;20200;-84
2021/08/09 10:05:12;;;;;;;6.53;5.80;;;22.60;70.30;;;;;;4979220;28;20243;-84
2021/08/09 10:07:41;;;;;;;8.27;6.38;;;22.50;70.50;;;;;;4981267;28;20638;-81
2021/08/09 10:10:09;;;;;;;10.93;6.13;;;22.50;70.70;;;;;;5047459;28;20219;-81
2021/08/09 10:12:37;;;;;;;10.45;6.30;;;22.60;70.60;;;;;;4962508;28;20207;-85
2021/08/09 10:15:08;;;;;;;7.13;5.15;;;22.50;70.60;;;;;;4987366;28;20210;-80
2021/08/09 10:17:36;;;;;;;9.05;4.95;;;22.60;70.20;;;;;;4969275;28;20183;-86
2021/08/09 10:20:06;;;;;;;7.45;5.15;;;22.60;70.10;;;;;;4998053;28;20163;-80
2021/08/09 10:22:37;;;;;;;10.50;5.88;;;22.60;70.00;;;;;;5032246;28;20255;-83
2021/08/09 10:25:03;;;;;;;7.97;6.10;;;22.60;70.00;;;;;;4969252;28;20215;-81
2021/08/09 10:27:51;;;;;;;9.10;5.72;;;22.60;70.30;;;;;;5017264;28;20230;-81
2021/08/09 10:30:19;;;;;;;9.70;5.97;;;22.60;69.70;;;;;;5019053;28;20169;-83
2021/08/09 10:32:52;;;;;;;9.20;5.90;;;22.60;70.00;;;;;;5017243;28;20164;-81
2021/08/09 10:36:01;;;;;;;9.55;6.00;;;22.60;69.70;;;;;;4970275;28;20202;-80
2021/08/09 10:38:39;;;;;;;7.45;5.75;;;22.60;69.60;;;;;;5020078;28;20203;-81
2021/08/09 10:41:26;;;;;;;6.93;5.60;;;22.60;69.80;;;;;;4970357;28;20278;-81
2021/08/09 10:44:18;;;;;;;6.90;5.30;;;22.70;70.10;;;;;;4991423;28;20175;-83
2021/08/09 10:46:46;;;;;;;12.02;6.03;;;22.60;69.40;;;;;;5010772;28;20167;-80
2021/08/09 10:49:52;;;;;;;8.52;5.53;;;22.60;69.60;;;;;;5022335;28;20156;-83
2021/08/09 10:52:41;;;;;;;8.32;5.70;;;22.60;69.80;;;;;;5022151;28;20151;-80
2021/08/09 10:55:40;;;;;;;8.68;6.20;;;22.60;69.80;;;;;;4974531;28;20255;-81
2021/08/09 10:58:31;;;;;;;6.22;5.55;;;22.60;70.60;;;;;;5024722;28;20160;-80
2021/08/09 11:01:03;;;;;;;5.50;4.68;;;22.70;70.30;;;;;;4996176;28;20194;-80
2021/08/09 11:03:32;;;;;;;10.18;6.25;;;22.70;69.20;;;;;;4971628;28;20201;-84
2021/08/09 11:05:59;;;;;;;8.93;5.65;;;22.70;69.60;;;;;;4972656;28;20581;-83
2021/08/09 11:08:24;;;;;;;15.70;6.25;;;22.60;70.10;;;;;;5022570;28;20163;-84
2021/08/09 11:11:01;;;;;;;9.50;5.45;;;22.70;69.70;;;;;;5036646;28;20282;-82
2021/08/09 11:13:28;;;;;;;10.07;5.90;;;22.70;68.80;;;;;;5023225;28;20688;-82
2021/08/09 11:16:03;;;;;;;10.13;5.95;;;22.80;69.20;;;;;;5044272;28;20155;-81
2021/08/09 11:18:35;;;;;;;6.97;5.40;;;22.70;70.30;;;;;;5006049;28;20208;-83
2021/08/09 11:21:08;;;;;;;8.55;5.60;;;22.80;68.60;;;;;;4988244;28;20187;-84
2021/08/09 11:23:36;;;;;;;11.20;6.13;;;22.80;69.20;;;;;;4989476;28;20247;-81
2021/08/09 11:26:02;;;;;;;6.10;5.40;;;22.80;69.40;;;;;;5039726;28;20544;-83
2021/08/09 11:28:28;;;;;;;9.50;5.60;;;22.80;68.50;;;;;;5023996;28;20165;-81
2021/08/09 11:30:57;;;;;;;5.97;5.05;;;22.80;69.70;;;;;;5043435;28;20183;-80
2021/08/09 11:33:34;;;;;;;8.48;5.45;;;22.80;69.20;;;;;;5042583;28;20567;-82
2021/08/09 11:36:06;;;;;;;6.18;5.25;;;22.80;69.90;;;;;;5042446;28;20253;-81
2021/08/09 11:38:53;;;;;;;8.50;4.93;;;22.70;69.60;;;;;;5043023;28;20186;-80
2021/08/09 11:41:21;;;;;;;7.00;5.40;;;22.80;68.80;;;;;;4992781;28;20189;-81
2021/08/09 11:43:49;;;;;;;8.13;5.15;;;22.80;69.20;;;;;;5041747;28;20181;-82
2021/08/09 11:46:20;;;;;;;10.77;5.70;;;22.80;69.60;;;;;;5042685;28;20633;-82
2021/08/09 11:48:50;;;;;;;5.68;5.00;;;22.80;69.10;;;;;;5005510;28;20278;-82
2021/08/09 11:51:29;;;;;;;10.07;5.28;;;22.80;69.00;;;;;;5005262;28;20190;-81
2021/08/09 11:53:55;;;;;;;8.02;5.55;;;22.90;68.40;;;;;;4976165;28;20186;-82
2021/08/09 11:56:33;;;;;;;7.80;5.93;;;22.90;68.60;;;;;;5023164;28;20174;-84
2021/08/09 11:59:12;;;;;;;7.57;5.65;;;22.90;68.80;;;;;;5020836;28;20228;-81
2021/08/09 12:01:40;;;;;;;5.68;4.53;;;22.90;69.30;;;;;;5032811;28;20155;-81
2021/08/09 12:04:15;;;;;;;7.25;5.63;;;22.90;68.80;;;;;;5037579;28;20513;-80
2021/08/09 12:06:55;;;;;;;10.20;5.65;;;22.80;69.40;;;;;;4985328;28;20202;-81
2021/08/09 12:09:24;;;;;;;7.05;4.75;;;22.90;69.40;;;;;;5036038;28;20151;-81
2021/08/09 12:12:04;;;;;;;6.55;5.18;;;22.90;68.90;;;;;;5020385;28;20175;-83
2021/08/09 12:14:38;;;;;;;5.40;4.90;;;22.80;68.90;;;;;;5038432;28;20167;-81
2021/08/09 12:17:23;;;;;;;7.32;5.53;;;22.90;69.10;;;;;;4988173;28;20657;-83
2021/08/09 12:19:53;;;;;;;7.70;5.25;;;22.80;69.30;;;;;;5036145;28;20228;-82
2021/08/09 12:22:31;;;;;;;5.88;5.18;;;22.90;68.90;;;;;;4986445;28;20265;-80
2021/08/09 12:25:09;;;;;;;5.65;4.45;;;22.90;69.20;;;;;;5008797;28;20276;-79
2021/08/09 12:27:38;;;;;;;9.57;5.30;;;22.90;68.40;;;;;;4992818;28;20257;-80
2021/08/09 12:30:11;;;;;;;6.75;5.13;;;22.90;69.00;;;;;;5008345;28;20186;-80
2021/08/09 12:32:42;;;;;;;6.30;4.80;;;22.90;68.90;;;;;;5007912;28;20589;-79
2021/08/09 12:35:11;;;;;;;5.70;5.03;;;22.90;68.70;;;;;;4992095;28;20201;-81
2021/08/09 12:37:41;;;;;;;7.47;5.55;;;22.90;68.80;;;;;;4991649;28;20192;-79
2021/08/09 12:40:18;;;;;;;6.20;4.82;;;22.90;68.90;;;;;;4992938;28;20191;-81
2021/08/09 12:43:06;;;;;;;8.35;5.40;;;22.90;68.70;;;;;;5008833;28;20178;-79
2021/08/09 12:45:33;;;;;;;6.90;4.85;;;22.90;68.90;;;;;;5042386;28;20243;-79
2021/08/09 12:47:59;;;;;;;4.97;4.47;;;22.90;68.50;;;;;;4976545;28;20675;-80
2021/08/09 12:50:27;;;;;;;5.88;4.60;;;22.90;69.10;;;;;;4987391;28;20661;-80
2021/08/09 12:52:57;;;;;;;6.82;4.85;;;23.00;68.50;;;;;;5038963;28;20170;-81
2021/08/09 12:55:25;;;;;;;6.03;4.70;;;23.00;68.50;;;;;;4975845;28;20193;-79
2021/08/09 12:57:55;;;;;;;6.75;4.90;;;23.00;68.70;;;;;;5023909;28;20673;-79